Time;durP1;ratioP1;P1;durP2;ratioP2;P2;SDS_P1;SDS_P2;PMS_P1;PMS_P2;Temp;Humidity;BMP_temperature;BMP_pressure;BME280_temperature;BME280_humidity;BME280_pressure;Samples;Min_cycle;Max_cycle;Signal;HPM_P1;HPM_P2
2022/08/11 00:00:00;;;;;;;1.52;0.70;;;22.70;57.70;;;;;;5050664;28;20044;-63
2022/08/11 00:02:35;;;;;;;1.67;0.73;;;22.70;57.70;;;;;;5052673;28;20477;-62
2022/08/11 00:05:06;;;;;;;1.85;1.00;;;22.60;57.90;;;;;;5030846;28;20452;-62
2022/08/11 00:07:32;;;;;;;1.38;0.80;;;22.60;58.10;;;;;;5051349;28;20051;-63
2022/08/11 00:09:58;;;;;;;1.92;1.25;;;22.60;58.10;;;;;;5051758;28;20104;-63
2022/08/11 00:12:24;;;;;;;2.40;0.93;;;22.50;58.20;;;;;;5051149;28;20108;-62
2022/08/11 00:15:00;;;;;;;1.30;0.85;;;22.50;58.40;;;;;;5049959;28;20020;-62
2022/08/11 00:17:32;;;;;;;1.48;1.00;;;22.40;58.60;;;;;;5048655;28;20017;-63
2022/08/11 00:20:07;;;;;;;1.30;1.00;;;22.30;58.80;;;;;;5047487;28;20028;-62
2022/08/11 00:22:35;;;;;;;1.60;1.00;;;22.30;58.80;;;;;;5051387;28;20033;-62
2022/08/11 00:25:11;;;;;;;2.35;0.82;;;22.20;59.00;;;;;;5051429;28;20392;-62
2022/08/11 00:27:39;;;;;;;1.50;1.13;;;22.20;59.10;;;;;;5049802;28;20029;-62
2022/08/11 00:30:07;;;;;;;1.90;1.13;;;22.10;59.30;;;;;;5052509;28;20029;-62
2022/08/11 00:32:34;;;;;;;1.85;1.05;;;22.10;59.50;;;;;;5050245;28;20018;-63
2022/08/11 00:35:01;;;;;;;1.65;1.05;;;22.00;59.70;;;;;;5050302;28;20161;-62
2022/08/11 00:37:27;;;;;;;1.45;0.93;;;21.90;59.90;;;;;;5048236;28;20017;-62
2022/08/11 00:39:55;;;;;;;4.18;1.55;;;21.90;60.00;;;;;;5051003;28;20017;-62
2022/08/11 00:43:05;;;;;;;3.33;1.08;;;21.90;60.10;;;;;;5051098;28;20032;-62
2022/08/11 00:45:41;;;;;;;3.38;1.02;;;21.90;60.20;;;;;;5045302;28;21146;-62
2022/08/11 00:48:14;;;;;;;2.03;1.20;;;21.70;60.50;;;;;;5047891;28;20385;-63
2022/08/11 00:51:09;;;;;;;1.95;1.05;;;21.70;60.70;;;;;;5049362;28;20487;-62
2022/08/11 00:53:48;;;;;;;2.72;1.13;;;21.70;61.00;;;;;;4992392;28;20128;-62
2022/08/11 00:56:35;;;;;;;2.20;1.20;;;21.60;61.30;;;;;;5048488;28;20028;-62
2022/08/11 00:59:32;;;;;;;3.00;1.10;;;21.60;61.70;;;;;;5048619;28;20025;-62
2022/08/11 01:02:32;;;;;;;2.58;1.50;;;21.50;61.80;;;;;;5047218;28;20021;-62
2022/08/11 01:05:22;;;;;;;2.78;1.45;;;21.50;62.20;;;;;;5044609;28;20039;-62
2022/08/11 01:08:29;;;;;;;1.65;0.93;;;21.40;62.30;;;;;;5049597;28;20064;-62
2022/08/11 01:11:38;;;;;;;3.85;1.60;;;21.30;62.40;;;;;;5047241;28;20053;-62
2022/08/11 01:14:30;;;;;;;2.17;1.20;;;21.30;62.60;;;;;;5050354;28;20024;-62
2022/08/11 01:16:56;;;;;;;3.40;1.55;;;21.20;63.00;;;;;;5049355;28;20017;-62
2022/08/11 01:19:55;;;;;;;3.05;1.38;;;21.10;63.30;;;;;;5052856;28;20067;-62
2022/08/11 01:22:35;;;;;;;1.33;1.02;;;21.10;63.40;;;;;;5048771;28;20056;-62
2022/08/11 01:25:23;;;;;;;2.47;1.30;;;21.00;63.80;;;;;;5048797;28;20037;-62
2022/08/11 01:28:26;;;;;;;1.70;1.20;;;21.00;63.90;;;;;;5049923;28;20068;-62
2022/08/11 01:31:27;;;;;;;3.47;1.50;;;20.90;63.90;;;;;;5049297;28;20655;-62
2022/08/11 01:34:15;;;;;;;2.70;1.30;;;20.90;64.00;;;;;;5047972;28;20410;-63
2022/08/11 01:37:02;;;;;;;2.78;1.45;;;20.80;64.30;;;;;;5048539;28;20033;-62
2022/08/11 01:40:09;;;;;;;2.22;1.27;;;20.80;64.60;;;;;;5050126;28;20527;-63
2022/08/11 01:46:42;;;;;;;2.53;1.38;;;20.80;64.90;;;;;;5051074;28;20071;-62
2022/08/11 01:49:25;;;;;;;3.13;1.40;;;20.60;65.20;;;;;;4934705;28;20063;-62
2022/08/11 01:52:17;;;;;;;2.63;2.00;;;20.60;65.40;;;;;;4958536;28;20482;-62
2022/08/11 01:55:10;;;;;;;3.00;1.30;;;20.60;65.60;;;;;;5031356;28;20108;-62
2022/08/11 01:57:46;;;;;;;2.55;1.48;;;20.50;65.90;;;;;;5045931;28;20009;-62
2022/08/11 02:00:18;;;;;;;1.63;1.27;;;20.50;65.90;;;;;;5050004;28;20017;-62
2022/08/11 02:02:59;;;;;;;1.92;1.20;;;20.50;66.00;;;;;;5048138;28;20033;-62
2022/08/11 02:06:01;;;;;;;1.92;1.40;;;20.50;66.00;;;;;;5047522;28;20021;-62
2022/08/11 02:08:38;;;;;;;2.85;1.38;;;20.50;66.00;;;;;;5048262;28;20536;-62
2022/08/11 02:11:35;;;;;;;3.83;1.67;;;20.40;66.10;;;;;;5048848;28;20036;-62
2022/08/11 02:14:26;;;;;;;2.10;1.33;;;20.40;66.40;;;;;;5046837;28;20029;-62
2022/08/11 02:17:13;;;;;;;2.55;1.60;;;20.40;66.60;;;;;;5048052;28;20021;-62
2022/08/11 02:25:58;;;;;;;3.85;1.85;;;20.20;67.60;;;;;;5049075;28;20546;-62
2022/08/11 02:28:40;;;;;;;2.80;1.50;;;20.20;67.80;;;;;;5051568;28;20040;-62
2022/08/11 02:34:36;;;;;;;2.88;1.55;;;20.20;68.00;;;;;;5053304;28;20044;-62
2022/08/11 02:37:16;;;;;;;2.35;1.70;;;20.10;68.20;;;;;;5050092;28;20029;-62
2022/08/11 02:39:52;;;;;;;1.85;1.60;;;20.10;68.60;;;;;;5053122;28;20020;-62
2022/08/11 02:42:34;;;;;;;2.65;1.80;;;20.10;68.90;;;;;;5051779;28;20481;-62
2022/08/11 02:45:29;;;;;;;2.47;1.58;;;20.10;69.10;;;;;;5047474;28;20031;-62
2022/08/11 02:51:24;;;;;;;2.35;1.20;;;20.00;69.40;;;;;;5054246;28;20124;-62
2022/08/11 06:41:55;;;;;;;4.75;3.20;;;19.10;84.50;;;;;;5123502;27;20953;-66
2022/08/11 06:44:32;;;;;;;5.72;3.28;;;20.20;82.60;;;;;;5106170;28;20063;-65
2022/08/11 06:47:07;;;;;;;5.28;3.08;;;20.10;83.10;;;;;;5096577;28;20020;-66
2022/08/11 06:52:37;;;;;;;3.67;2.72;;;20.10;81.70;;;;;;5109353;28;20077;-66
2022/08/11 07:00:26;;;;;;;3.20;2.90;;;20.20;81.00;;;;;;5108999;28;20024;-65
2022/08/11 07:01:12;;;;;;;3.92;2.72;;;20.30;79.60;;;;;;5108074;28;20084;-66
2022/08/11 07:03:43;;;;;;;4.18;2.65;;;20.40;79.40;;;;;;5105552;28;20545;-66
2022/08/11 07:06:37;;;;;;;3.45;1.90;;;20.50;79.30;;;;;;5107940;28;20020;-66
2022/08/11 07:29:10;;;;;;;4.55;2.00;;;21.20;75.10;;;;;;5102663;28;20019;-66
2022/08/11 07:32:05;;;;;;;3.05;1.80;;;21.20;74.80;;;;;;5107495;28;20111;-65
2022/08/11 07:34:42;;;;;;;5.32;1.95;;;21.30;74.40;;;;;;5105988;28;20035;-66
2022/08/11 07:37:15;;;;;;;3.92;1.58;;;21.40;74.10;;;;;;5106392;28;20142;-66
2022/08/11 07:39:43;;;;;;;3.17;1.83;;;21.50;73.60;;;;;;5103532;28;20507;-66
2022/08/11 07:42:11;;;;;;;4.50;1.77;;;21.60;73.10;;;;;;5090153;28;20391;-66
2022/08/11 07:52:58;;;;;;;4.07;1.70;;;22.00;71.70;;;;;;5092462;28;20038;-66
2022/08/11 07:55:25;;;;;;;5.55;2.05;;;22.10;71.30;;;;;;5092193;28;20020;-65
2022/08/11 08:20:08;;;;;;;3.42;1.75;;;23.00;68.10;;;;;;5074627;28;20608;-66
2022/08/11 08:22:35;;;;;;;4.03;1.90;;;23.10;67.60;;;;;;5078952;28;20020;-66
2022/08/11 08:25:01;;;;;;;3.38;1.80;;;23.20;66.90;;;;;;5093340;28;20046;-65
2022/08/11 08:27:27;;;;;;;3.25;1.52;;;23.30;66.80;;;;;;5093067;28;20462;-65
2022/08/11 08:32:40;;;;;;;2.35;1.60;;;23.50;66.30;;;;;;5075205;28;20047;-66
2022/08/11 08:35:08;;;;;;;1.90;1.43;;;23.60;66.00;;;;;;5075107;28;20024;-65
2022/08/11 08:37:34;;;;;;;2.50;1.52;;;23.70;65.80;;;;;;5091952;28;20816;-66
2022/08/11 08:40:00;;;;;;;4.28;1.58;;;23.70;65.60;;;;;;5091981;28;20043;-66
2022/08/11 08:42:38;;;;;;;4.55;1.48;;;23.80;65.30;;;;;;5078084;28;20653;-66
2022/08/11 08:45:14;;;;;;;4.07;1.90;;;23.90;65.00;;;;;;5094192;28;20377;-65
2022/08/11 08:47:44;;;;;;;3.55;1.90;;;24.00;64.60;;;;;;5089594;28;20052;-65
2022/08/11 08:50:18;;;;;;;3.15;1.60;;;24.10;64.30;;;;;;5090340;28;20035;-65
2022/08/11 08:52:54;;;;;;;2.60;1.70;;;24.20;64.10;;;;;;5080817;28;20103;-66
2022/08/11 08:55:20;;;;;;;3.45;1.67;;;24.30;63.80;;;;;;5087833;28;20020;-66
2022/08/11 08:57:49;;;;;;;4.50;1.92;;;24.40;63.20;;;;;;5090877;28;20036;-66
2022/08/11 09:00:15;;;;;;;2.63;1.27;;;24.50;63.00;;;;;;5090322;28;20039;-66
2022/08/11 09:02:44;;;;;;;3.22;1.88;;;24.60;62.90;;;;;;5087170;28;20103;-66
2022/08/11 09:05:10;;;;;;;4.83;1.70;;;24.70;62.20;;;;;;5087832;28;20020;-66
2022/08/11 09:07:36;;;;;;;5.07;1.92;;;24.80;62.20;;;;;;5086053;28;20024;-66
2022/08/11 09:10:04;;;;;;;2.83;1.58;;;24.90;61.80;;;;;;5093380;28;20481;-66
2022/08/11 09:12:31;;;;;;;4.40;1.67;;;25.00;61.20;;;;;;5083457;28;20055;-66
2022/08/11 09:15:03;;;;;;;3.40;1.98;;;25.10;60.80;;;;;;5089241;28;20020;-66
2022/08/11 09:17:37;;;;;;;2.97;1.67;;;25.10;60.20;;;;;;5085038;28;20060;-66
2022/08/11 09:20:10;;;;;;;2.42;1.30;;;25.20;60.00;;;;;;5091458;28;20100;-66
2022/08/11 09:28:12;;;;;;;2.60;1.52;;;25.50;59.30;;;;;;5089169;28;20432;-66
2022/08/11 09:30:41;;;;;;;2.72;1.55;;;25.60;58.60;;;;;;5091505;28;20541;-66
2022/08/11 09:33:10;;;;;;;3.45;1.58;;;25.70;58.30;;;;;;5090954;28;20027;-66
2022/08/11 09:35:37;;;;;;;4.70;1.40;;;25.80;57.70;;;;;;5091328;28;20030;-66
2022/08/11 09:40:51;;;;;;;2.55;1.65;;;25.90;57.00;;;;;;5087748;28;20105;-66
2022/08/11 09:46:04;;;;;;;3.30;2.38;;;26.10;56.00;;;;;;5091333;28;20035;-66
2022/08/11 09:48:35;;;;;;;3.00;1.58;;;26.20;55.30;;;;;;5089468;28;20500;-66
2022/08/11 09:51:02;;;;;;;4.10;1.92;;;26.30;54.70;;;;;;5089088;28;20024;-66
2022/08/11 09:53:34;;;;;;;3.00;1.60;;;26.40;54.80;;;;;;5090108;28;20012;-66
2022/08/11 09:58:12;;;;;;;2.72;1.40;;;26.50;54.50;;;;;;5091082;28;20040;-66
2022/08/11 09:58:47;;;;;;;2.25;1.45;;;26.60;54.20;;;;;;5089927;28;20028;-66
2022/08/11 10:01:25;;;;;;;3.72;1.50;;;26.70;53.90;;;;;;5089285;28;20108;-66
2022/08/11 10:03:58;;;;;;;5.00;1.80;;;26.80;53.30;;;;;;5089125;28;20020;-66
2022/08/11 10:09:11;;;;;;;4.45;1.75;;;27.00;51.90;;;;;;5091472;28;20531;-66
2022/08/11 10:11:39;;;;;;;5.72;1.77;;;27.00;51.40;;;;;;5089756;28;20158;-66
2022/08/11 10:16:51;;;;;;;3.78;1.70;;;27.20;50.00;;;;;;5089028;28;20077;-66
2022/08/11 10:19:20;;;;;;;2.60;1.70;;;27.30;49.80;;;;;;5086181;28;20055;-66
2022/08/11 10:26:49;;;;;;;4.75;1.40;;;27.40;49.60;;;;;;5088253;28;20103;-66
2022/08/11 10:27:20;;;;;;;3.30;1.80;;;27.60;49.10;;;;;;5084297;28;20026;-66
2022/08/11 10:35:18;;;;;;;3.53;1.95;;;27.90;49.20;;;;;;5083658;28;20040;-66
2022/08/11 10:37:46;;;;;;;3.67;1.67;;;28.10;48.20;;;;;;5077309;28;20036;-66
2022/08/11 10:40:21;;;;;;;3.38;1.55;;;28.20;48.10;;;;;;5082510;28;20092;-66
2022/08/11 10:43:13;;;;;;;3.92;1.70;;;28.30;48.00;;;;;;5071673;28;20025;-66
2022/08/11 10:48:28;;;;;;;4.70;1.95;;;28.50;47.80;;;;;;5085595;28;20062;-66
2022/08/11 10:51:13;;;;;;;2.30;1.75;;;28.70;47.50;;;;;;5079032;28;20047;-66
2022/08/11 10:59:22;;;;;;;2.25;1.60;;;29.10;46.30;;;;;;5091483;28;20031;-67
2022/08/11 11:01:49;;;;;;;2.00;1.40;;;29.30;45.70;;;;;;5103488;28;20120;-66
2022/08/11 11:04:22;;;;;;;2.30;1.38;;;29.40;45.20;;;;;;5090470;28;20541;-66
2022/08/11 11:07:12;;;;;;;2.45;1.52;;;29.60;45.40;;;;;;5084831;28;20557;-66
2022/08/11 11:09:48;;;;;;;2.40;1.60;;;29.80;45.00;;;;;;5090436;28;20031;-66
2022/08/11 11:18:06;;;;;;;6.85;1.90;;;30.20;44.00;;;;;;5094082;28;20031;-66
2022/08/11 11:20:48;;;;;;;2.20;1.50;;;30.50;44.10;;;;;;5092385;28;20111;-67
2022/08/11 11:23:33;;;;;;;3.50;2.33;;;30.70;43.60;;;;;;5092286;28;20043;-67
2022/08/11 11:26:22;;;;;;;2.65;1.67;;;30.80;43.40;;;;;;5093966;28;20081;-67
2022/08/11 11:29:15;;;;;;;3.78;1.55;;;31.00;43.50;;;;;;5091577;28;20020;-67
2022/08/11 11:32:15;;;;;;;3.97;1.50;;;31.20;42.30;;;;;;5093200;28;20020;-67
2022/08/11 11:35:12;;;;;;;5.10;1.63;;;31.40;42.40;;;;;;5093384;28;20032;-67
2022/08/11 11:37:39;;;;;;;1.80;1.52;;;31.60;42.00;;;;;;5092638;28;20029;-67
2022/08/11 11:40:24;;;;;;;3.50;1.60;;;31.80;40.90;;;;;;5092811;28;20051;-67
2022/08/11 11:42:52;;;;;;;3.25;1.50;;;31.80;39.50;;;;;;5091074;28;20089;-67
2022/08/11 11:45:22;;;;;;;3.97;1.40;;;31.90;40.10;;;;;;5093818;28;20076;-67
2022/08/11 11:47:53;;;;;;;3.80;1.50;;;32.10;40.20;;;;;;5091785;28;20271;-67
2022/08/11 11:50:29;;;;;;;1.30;0.95;;;32.40;40.60;;;;;;5089467;28;20104;-67
2022/08/11 11:52:57;;;;;;;3.33;1.52;;;32.70;40.70;;;;;;5083436;28;20059;-67
2022/08/11 11:55:24;;;;;;;2.92;1.77;;;32.80;38.10;;;;;;5083696;28;20023;-67
2022/08/11 12:03:42;;;;;;;3.47;1.73;;;32.40;37.10;;;;;;5071419;28;20024;-67
2022/08/11 12:06:12;;;;;;;1.48;1.08;;;32.70;38.50;;;;;;5071436;28;20051;-67
2022/08/11 12:08:38;;;;;;;3.17;1.40;;;33.10;38.90;;;;;;5079740;28;20458;-67
2022/08/11 12:13:54;;;;;;;1.98;1.27;;;33.50;36.10;;;;;;5093866;28;20031;-67
2022/08/11 12:16:21;;;;;;;5.07;1.65;;;33.60;37.10;;;;;;5093816;28;20116;-67
2022/08/11 12:18:51;;;;;;;1.75;1.33;;;33.90;36.20;;;;;;5092809;28;20034;-67
2022/08/11 12:21:17;;;;;;;2.15;1.35;;;34.10;36.70;;;;;;5092616;28;20538;-67
2022/08/11 12:27:19;;;;;;;2.33;1.33;;;34.50;36.60;;;;;;5089713;28;20102;-67
2022/08/11 12:29:26;;;;;;;1.80;1.27;;;34.70;37.10;;;;;;5090428;28;20054;-67
2022/08/11 12:31:53;;;;;;;1.27;0.90;;;35.00;37.10;;;;;;5093734;28;20012;-67
2022/08/11 12:34:20;;;;;;;2.92;1.33;;;35.30;36.90;;;;;;5091764;28;20056;-67
2022/08/11 12:36:56;;;;;;;1.73;1.48;;;35.60;36.10;;;;;;5092531;28;20032;-67
2022/08/11 12:45:26;;;;;;;2.30;1.40;;;35.80;35.80;;;;;;5076087;28;20500;-66
2022/08/11 12:53:27;;;;;;;1.20;1.10;;;36.70;34.80;;;;;;5089113;28;20081;-67
2022/08/11 12:58:41;;;;;;;2.25;1.20;;;36.90;34.40;;;;;;5089993;28;20046;-67
2022/08/11 13:06:37;;;;;;;2.90;1.13;;;37.20;34.00;;;;;;5093330;28;20527;-67
2022/08/11 13:09:05;;;;;;;1.95;1.35;;;37.20;34.00;;;;;;5093127;28;20035;-67
2022/08/11 13:14:16;;;;;;;1.20;1.10;;;37.50;33.70;;;;;;5093192;28;20115;-67
2022/08/11 13:19:29;;;;;;;1.83;1.10;;;37.80;32.60;;;;;;5084651;28;20078;-67
2022/08/11 13:21:56;;;;;;;1.00;0.82;;;38.00;33.00;;;;;;5092193;28;20016;-67
2022/08/11 13:24:22;;;;;;;1.20;1.02;;;38.10;32.70;;;;;;5093023;28;20029;-67
2022/08/11 13:26:49;;;;;;;1.92;1.00;;;38.10;32.70;;;;;;5074951;28;20048;-67
2022/08/11 13:29:23;;;;;;;1.25;1.15;;;38.10;33.00;;;;;;5082664;28;20020;-67
2022/08/11 13:31:51;;;;;;;3.17;1.15;;;38.20;33.10;;;;;;5092855;28;20470;-67
2022/08/11 13:34:17;;;;;;;2.80;1.42;;;38.30;33.10;;;;;;5082829;28;20016;-67
2022/08/11 13:36:44;;;;;;;1.60;1.15;;;38.40;33.00;;;;;;5076061;28;20074;-67
2022/08/11 13:39:11;;;;;;;3.50;1.42;;;38.50;32.90;;;;;;5078149;28;20016;-67
2022/08/11 13:41:39;;;;;;;2.05;1.00;;;38.50;32.80;;;;;;5089715;28;20039;-67
2022/08/11 13:44:11;;;;;;;3.83;0.90;;;38.60;32.40;;;;;;5075669;28;20028;-67
2022/08/11 13:46:38;;;;;;;1.40;0.90;;;38.70;32.30;;;;;;5089341;28;20023;-67
2022/08/11 13:49:07;;;;;;;1.37;1.07;;;38.80;31.70;;;;;;5090101;28;20024;-67
2022/08/11 13:51:34;;;;;;;1.55;1.02;;;38.80;31.30;;;;;;5088864;28;20258;-67
2022/08/11 13:54:03;;;;;;;2.72;1.35;;;38.80;31.60;;;;;;5084050;28;20482;-67
2022/08/11 13:56:38;;;;;;;2.72;1.60;;;38.90;31.10;;;;;;5091224;28;20024;-68
2022/08/11 13:59:07;;;;;;;1.83;1.30;;;38.80;30.70;;;;;;5088575;28;20050;-68
2022/08/11 14:01:35;;;;;;;4.05;1.33;;;38.80;31.10;;;;;;5088469;28;20020;-67
2022/08/11 14:04:10;;;;;;;2.08;1.00;;;39.00;31.30;;;;;;5088114;28;20394;-66
2022/08/11 14:06:41;;;;;;;2.30;1.35;;;39.10;31.20;;;;;;5090958;28;20032;-66
2022/08/11 14:09:09;;;;;;;2.47;1.30;;;39.00;30.80;;;;;;5088368;28;20008;-66
2022/08/11 14:14:29;;;;;;;2.05;1.23;;;39.00;31.20;;;;;;5088706;28;20047;-66
2022/08/11 14:16:56;;;;;;;2.38;1.20;;;39.00;31.00;;;;;;5090780;28;20024;-67
2022/08/11 14:19:24;;;;;;;2.17;1.05;;;39.00;31.00;;;;;;5092084;28;20111;-66
2022/08/11 14:22:06;;;;;;;3.60;1.10;;;39.10;30.80;;;;;;5078045;28;20023;-66
2022/08/11 14:24:38;;;;;;;1.35;1.10;;;39.20;30.90;;;;;;5088377;28;20032;-66
2022/08/11 14:27:10;;;;;;;1.55;1.20;;;39.20;31.30;;;;;;5090253;28;20024;-66
2022/08/11 14:29:39;;;;;;;1.10;1.00;;;39.30;31.00;;;;;;5090961;28;20028;-66
2022/08/11 14:32:08;;;;;;;2.05;1.33;;;39.30;31.00;;;;;;5090981;28;20020;-67
2022/08/11 14:34:43;;;;;;;1.33;1.00;;;39.40;30.60;;;;;;5091055;28;20052;-66
2022/08/11 14:37:29;;;;;;;1.90;1.20;;;39.40;31.00;;;;;;5078901;28;20486;-66
2022/08/11 14:39:59;;;;;;;1.90;1.10;;;39.40;31.10;;;;;;5088312;28;20068;-67
2022/08/11 14:48:04;;;;;;;1.77;1.23;;;39.50;31.00;;;;;;5086472;28;20031;-66
2022/08/11 14:50:32;;;;;;;2.42;1.20;;;39.50;31.20;;;;;;5087119;28;20020;-67
2022/08/11 14:52:57;;;;;;;0.90;0.85;;;39.50;30.80;;;;;;5087706;28;20416;-67
2022/08/11 14:58:18;;;;;;;2.25;1.35;;;39.60;30.60;;;;;;5091977;28;20560;-67
2022/08/11 15:00:44;;;;;;;1.33;1.20;;;39.50;30.40;;;;;;5093620;28;20028;-66
2022/08/11 15:03:12;;;;;;;1.90;1.30;;;39.40;30.60;;;;;;5087596;28;20048;-67
2022/08/11 15:05:53;;;;;;;1.30;1.00;;;39.30;30.50;;;;;;5090758;28;20474;-66
2022/08/11 15:08:53;;;;;;;1.20;1.10;;;39.40;30.70;;;;;;5089312;28;20386;-66
2022/08/11 15:12:07;;;;;;;2.42;1.20;;;39.50;30.70;;;;;;5088710;28;20478;-67
2022/08/11 15:13:53;;;;;;;2.03;1.02;;;39.50;30.70;;;;;;5088558;28;20469;-66
2022/08/11 15:19:04;;;;;;;3.00;1.20;;;39.50;30.50;;;;;;5081974;28;20062;-66
2022/08/11 15:24:21;;;;;;;1.95;1.08;;;39.60;30.60;;;;;;5092047;28;20042;-67
2022/08/11 15:37:45;;;;;;;2.67;1.10;;;39.80;30.60;;;;;;5093026;28;20042;-66
2022/08/11 15:46:29;;;;;;;2.05;1.02;;;39.50;30.00;;;;;;5090104;28;20154;-67
2022/08/11 15:49:15;;;;;;;1.70;1.20;;;39.40;30.90;;;;;;5091148;28;20436;-66
2022/08/11 15:51:52;;;;;;;1.85;1.20;;;39.20;30.40;;;;;;5083166;28;20017;-66
2022/08/11 15:54:22;;;;;;;3.55;1.27;;;39.20;30.40;;;;;;5090992;28;20028;-66
2022/08/11 15:56:50;;;;;;;2.20;1.20;;;39.30;30.60;;;;;;5089443;28;20023;-67
2022/08/11 16:04:54;;;;;;;7.47;6.68;;;39.20;30.70;;;;;;5084520;28;20443;-67
2022/08/11 16:07:25;;;;;;;8.82;7.47;;;39.20;30.50;;;;;;5094595;28;20428;-66
2022/08/11 16:10:18;;;;;;;18.83;13.98;;;39.30;30.50;;;;;;5090820;28;20016;-66
2022/08/11 16:18:23;;;;;;;2.63;2.00;;;39.10;30.20;;;;;;5089071;28;20115;-66
2022/08/11 16:20:55;;;;;;;1.98;1.30;;;39.00;30.00;;;;;;5084448;28;20028;-66
2022/08/11 16:23:25;;;;;;;1.20;1.00;;;38.80;30.00;;;;;;5094396;28;20031;-66
2022/08/11 16:25:53;;;;;;;2.72;1.20;;;38.70;29.90;;;;;;5087624;28;20065;-66
2022/08/11 16:28:21;;;;;;;1.38;0.95;;;38.50;29.90;;;;;;5093441;28;20573;-66
2022/08/11 16:30:48;;;;;;;1.83;1.00;;;38.60;30.00;;;;;;5080990;28;20100;-66
2022/08/11 16:33:15;;;;;;;1.10;0.82;;;38.60;30.40;;;;;;5085632;28;20058;-66
2022/08/11 16:38:38;;;;;;;2.38;1.10;;;38.50;29.90;;;;;;5081452;28;20036;-66
2022/08/11 16:46:58;;;;;;;1.92;1.00;;;38.40;30.00;;;;;;5092762;28;20406;-66
2022/08/11 16:46:58;;;;;;;1.85;1.08;;;38.20;30.30;;;;;;5089545;28;20050;-67
2022/08/11 16:49:41;;;;;;;1.75;0.98;;;38.30;30.40;;;;;;5076833;28;20012;-66
2022/08/11 16:52:10;;;;;;;1.65;1.15;;;38.30;30.20;;;;;;5084388;28;20024;-66
2022/08/11 16:54:37;;;;;;;1.33;0.90;;;38.30;30.50;;;;;;5081226;28;20496;-66
2022/08/11 16:59:53;;;;;;;2.00;1.23;;;38.20;30.60;;;;;;5077430;28;20044;-66
2022/08/11 17:13:55;;;;;;;1.30;0.90;;;38.00;30.80;;;;;;5083442;28;20087;-66
2022/08/11 17:16:30;;;;;;;3.47;1.23;;;37.90;30.70;;;;;;5091649;28;20032;-66
2022/08/11 17:19:08;;;;;;;1.27;0.88;;;37.90;30.90;;;;;;5092981;28;20066;-66
2022/08/11 17:24:36;;;;;;;1.15;0.95;;;37.90;30.90;;;;;;5090346;28;20069;-66
2022/08/11 17:27:04;;;;;;;2.17;1.10;;;37.80;30.70;;;;;;5093474;28;20103;-66
2022/08/11 17:29:38;;;;;;;1.70;1.08;;;37.80;31.00;;;;;;5092932;28;20505;-66
2022/08/11 17:37:40;;;;;;;2.40;1.00;;;37.60;30.90;;;;;;5091285;28;20102;-66
2022/08/11 17:40:12;;;;;;;3.17;0.80;;;37.50;31.00;;;;;;5089716;28;20414;-66
2022/08/11 17:48:26;;;;;;;1.95;0.98;;;37.50;31.60;;;;;;5090826;28;20089;-66
2022/08/11 17:51:06;;;;;;;2.85;1.00;;;37.40;31.70;;;;;;5088212;28;20103;-66
2022/08/11 18:03:27;;;;;;;3.38;0.98;;;37.30;32.40;;;;;;5089752;28;20089;-66
2022/08/11 18:04:46;;;;;;;1.50;0.90;;;37.20;32.40;;;;;;5089822;28;20119;-66
